Time;durP1;ratioP1;P1;durP2;ratioP2;P2;SDS_P1;SDS_P2;PMS_P1;PMS_P2;Temp;Humidity;BMP_temperature;BMP_pressure;BME280_temperature;BME280_humidity;BME280_pressure;Samples;Min_cycle;Max_cycle;Signal;HPM_P1;HPM_P2
2022/03/02 00:02:05;;;;;;;31.67;22.08;;;6.40;67.20;;;;;;6247686;22;20012;-87
2022/03/02 00:04:30;;;;;;;32.40;23.38;;;6.30;67.20;;;;;;6246300;23;20448;-87
2022/03/02 00:06:56;;;;;;;30.77;22.83;;;6.30;67.20;;;;;;6246475;23;20062;-87
2022/03/02 00:09:22;;;;;;;27.67;21.90;;;6.30;67.20;;;;;;6248353;23;20027;-88
2022/03/02 00:11:48;;;;;;;31.13;23.23;;;6.30;67.30;;;;;;6255281;23;20016;-87
2022/03/02 00:14:13;;;;;;;33.88;23.90;;;6.40;67.40;;;;;;6251590;23;20012;-87
2022/03/02 00:16:39;;;;;;;31.40;23.65;;;6.30;67.50;;;;;;6263768;23;20055;-86
2022/03/02 00:19:05;;;;;;;34.53;25.27;;;6.40;67.50;;;;;;6275143;23;20057;-85
2022/03/02 00:21:31;;;;;;;33.28;24.33;;;6.50;67.70;;;;;;6274958;22;20001;-85
2022/03/02 00:23:57;;;;;;;34.42;24.20;;;6.40;67.60;;;;;;6252797;22;20012;-88
2022/03/02 00:26:23;;;;;;;32.28;24.40;;;6.40;67.70;;;;;;6248600;22;20495;-87
2022/03/02 00:28:49;;;;;;;35.08;26.23;;;6.40;67.60;;;;;;6246607;23;20024;-87
2022/03/02 00:31:14;;;;;;;32.97;24.02;;;6.40;67.60;;;;;;6248481;22;20027;-87
2022/03/02 00:34:18;;;;;;;35.00;25.02;;;6.40;67.70;;;;;;6248252;23;20016;-88
2022/03/02 00:36:44;;;;;;;31.35;24.15;;;6.40;67.80;;;;;;6246363;23;20020;-88
2022/03/02 00:39:10;;;;;;;33.13;24.45;;;6.40;67.80;;;;;;6246503;23;20095;-87
2022/03/02 00:41:36;;;;;;;33.88;24.27;;;6.30;67.70;;;;;;6248213;23;20102;-88
2022/03/02 00:44:03;;;;;;;30.75;22.63;;;6.40;67.80;;;;;;6246057;23;20099;-88
2022/03/02 00:46:29;;;;;;;35.08;24.25;;;6.30;67.70;;;;;;6246236;23;20027;-88
2022/03/02 00:49:22;;;;;;;35.67;24.85;;;6.40;67.70;;;;;;6246218;23;20023;-88
2022/03/02 00:51:48;;;;;;;31.42;23.08;;;6.30;67.70;;;;;;6186973;23;20029;-88
2022/03/02 00:54:13;;;;;;;30.52;23.88;;;6.40;67.70;;;;;;6185886;23;20020;-88
2022/03/02 00:56:39;;;;;;;35.83;25.85;;;6.40;67.70;;;;;;6187559;23;20024;-88
2022/03/02 00:59:05;;;;;;;33.38;25.25;;;6.30;67.60;;;;;;6187452;23;20013;-88
2022/03/02 01:01:31;;;;;;;36.78;24.58;;;6.40;67.60;;;;;;6187514;23;20374;-88
2022/03/02 01:03:56;;;;;;;33.70;24.55;;;6.30;67.50;;;;;;6187525;23;20013;-88
2022/03/02 01:06:22;;;;;;;35.53;24.25;;;6.30;67.60;;;;;;6186283;23;20027;-88
2022/03/02 01:08:50;;;;;;;35.13;25.55;;;6.30;67.70;;;;;;6185588;23;20024;-87
2022/03/02 01:11:15;;;;;;;33.70;24.48;;;6.30;67.70;;;;;;6185399;23;20461;-86
2022/03/02 01:13:41;;;;;;;34.72;25.58;;;6.30;67.70;;;;;;6187370;23;20009;-88
2022/03/02 01:16:07;;;;;;;36.05;25.40;;;6.30;67.70;;;;;;6187173;23;20070;-87
2022/03/02 01:18:32;;;;;;;33.28;24.48;;;6.30;67.70;;;;;;6185340;23;20020;-88
2022/03/02 01:20:59;;;;;;;37.72;25.90;;;6.30;67.70;;;;;;6185525;23;20017;-88
2022/03/02 01:23:25;;;;;;;35.47;25.08;;;6.30;67.80;;;;;;6184817;23;20105;-88
2022/03/02 01:25:51;;;;;;;34.22;24.33;;;6.30;67.90;;;;;;6187126;23;20017;-88
2022/03/02 01:28:17;;;;;;;34.25;26.38;;;6.30;67.90;;;;;;6185621;23;20041;-88
2022/03/02 01:30:43;;;;;;;36.63;25.88;;;6.30;67.90;;;;;;6185265;23;20021;-88
2022/03/02 01:33:08;;;;;;;33.60;24.33;;;6.30;67.90;;;;;;6185408;23;20017;-88
2022/03/02 01:35:34;;;;;;;34.92;25.38;;;6.30;67.80;;;;;;6185751;23;20021;-88
2022/03/02 01:37:59;;;;;;;33.40;24.23;;;6.30;67.80;;;;;;6187221;23;20092;-88
2022/03/02 01:40:25;;;;;;;35.38;25.88;;;6.30;67.70;;;;;;6185237;23;20024;-88
2022/03/02 01:42:51;;;;;;;33.38;24.63;;;6.30;67.70;;;;;;6187164;23;20049;-88
2022/03/02 01:45:17;;;;;;;32.40;23.98;;;6.30;67.70;;;;;;6186893;23;20318;-88
2022/03/02 01:47:43;;;;;;;34.63;24.75;;;6.30;67.60;;;;;;6185158;23;20032;-88
2022/03/02 01:50:11;;;;;;;35.28;25.73;;;6.30;67.60;;;;;;6207380;23;20009;-88
2022/03/02 01:52:36;;;;;;;36.15;25.50;;;6.20;67.40;;;;;;6248749;23;20024;-89
2022/03/02 01:55:04;;;;;;;34.47;25.05;;;6.20;67.30;;;;;;6255502;23;20047;-88
2022/03/02 01:57:30;;;;;;;33.17;23.63;;;6.20;67.20;;;;;;6264158;22;20012;-88
2022/03/02 01:59:55;;;;;;;33.53;24.52;;;6.20;67.20;;;;;;6255674;23;20012;-88
2022/03/02 02:02:21;;;;;;;35.50;24.40;;;6.20;67.20;;;;;;6247328;23;20101;-88
2022/03/02 02:08:27;;;;;;;34.65;23.98;;;6.10;67.30;;;;;;6247161;23;20051;-88
2022/03/02 02:10:56;;;;;;;32.90;22.88;;;6.10;67.30;;;;;;6246995;23;20016;-88
2022/03/02 02:13:22;;;;;;;31.27;23.27;;;6.10;67.30;;;;;;6247287;22;20020;-88
2022/03/02 02:15:48;;;;;;;33.28;23.33;;;6.10;67.40;;;;;;6247106;22;20024;-89
2022/03/02 02:18:13;;;;;;;31.15;23.02;;;6.10;67.40;;;;;;6247563;23;20340;-88
2022/03/02 02:24:20;;;;;;;27.17;21.10;;;6.10;67.30;;;;;;6247343;22;20054;-89
2022/03/02 02:26:46;;;;;;;32.88;22.80;;;6.10;67.30;;;;;;6245828;23;20091;-88
2022/03/02 02:29:12;;;;;;;30.35;22.60;;;6.10;67.30;;;;;;6247352;23;20016;-88
2022/03/02 02:31:37;;;;;;;29.00;21.67;;;6.10;67.40;;;;;;6247333;22;20356;-89
2022/03/02 02:34:23;;;;;;;33.30;24.17;;;6.10;67.40;;;;;;6247835;22;20070;-88
2022/03/02 02:36:50;;;;;;;33.40;24.60;;;6.20;67.50;;;;;;6248787;22;20336;-88
2022/03/02 02:39:16;;;;;;;31.58;22.88;;;6.10;67.90;;;;;;6249719;22;20012;-87
2022/03/02 02:41:41;;;;;;;28.65;20.98;;;6.10;67.50;;;;;;6247346;23;20138;-89
2022/03/02 02:44:07;;;;;;;32.00;23.75;;;6.20;67.60;;;;;;6247617;23;20019;-89
2022/03/02 02:46:33;;;;;;;32.50;22.55;;;6.20;67.60;;;;;;6249275;23;20088;-88
2022/03/02 02:48:58;;;;;;;31.20;22.90;;;6.20;67.60;;;;;;6247575;23;20039;-88
2022/03/02 02:51:24;;;;;;;32.08;24.30;;;6.20;67.70;;;;;;6248718;23;20098;-89
2022/03/02 02:53:50;;;;;;;36.08;24.58;;;6.20;67.70;;;;;;6249087;23;20078;-88
2022/03/02 02:56:15;;;;;;;31.40;23.55;;;6.20;67.80;;;;;;6249544;23;20017;-88
2022/03/02 02:58:41;;;;;;;34.47;23.98;;;6.20;67.80;;;;;;6247931;23;20024;-89
2022/03/02 03:01:07;;;;;;;35.90;24.73;;;6.20;67.90;;;;;;6255690;23;20424;-88
2022/03/02 03:03:32;;;;;;;35.35;24.75;;;6.20;67.90;;;;;;6269505;23;20016;-88
2022/03/02 03:05:58;;;;;;;37.67;25.27;;;6.20;67.90;;;;;;6270889;23;20064;-88
2022/03/02 03:08:24;;;;;;;35.45;25.77;;;6.20;67.90;;;;;;6262962;22;20008;-89
2022/03/02 03:10:49;;;;;;;37.60;25.98;;;6.10;67.80;;;;;;6247599;23;20027;-89
2022/03/02 03:13:16;;;;;;;36.65;25.95;;;6.10;67.80;;;;;;6247390;23;20012;-88
2022/03/02 03:15:43;;;;;;;38.78;26.83;;;6.10;67.80;;;;;;6248984;22;20399;-89
2022/03/02 03:18:09;;;;;;;39.20;27.02;;;6.10;67.80;;;;;;6222197;23;20012;-89
2022/03/02 03:21:15;;;;;;;38.88;26.80;;;6.10;67.80;;;;;;6247338;23;20113;-88
2022/03/02 03:23:41;;;;;;;37.88;24.95;;;6.00;67.70;;;;;;6256891;22;20027;-89
2022/03/02 03:26:06;;;;;;;35.85;25.35;;;6.00;68.10;;;;;;6268234;23;20020;-89
2022/03/02 03:28:32;;;;;;;37.65;26.15;;;6.00;67.70;;;;;;6250266;23;20016;-88
2022/03/02 03:30:57;;;;;;;37.15;26.25;;;6.00;67.80;;;;;;6247692;23;20020;-89
2022/03/02 03:33:23;;;;;;;38.00;26.30;;;6.00;67.70;;;;;;6249574;23;20016;-89
2022/03/02 03:35:49;;;;;;;39.63;26.92;;;6.00;67.80;;;;;;6247763;23;20050;-88
2022/03/02 03:38:15;;;;;;;41.20;27.00;;;5.90;67.70;;;;;;6247850;23;20020;-87
2022/03/02 03:40:40;;;;;;;39.90;26.33;;;5.90;67.70;;;;;;6247251;23;20012;-89
2022/03/02 03:43:06;;;;;;;36.70;24.67;;;5.90;67.80;;;;;;6247316;23;20095;-89
2022/03/02 03:45:32;;;;;;;38.03;26.73;;;5.90;67.90;;;;;;6248534;23;20379;-89
2022/03/02 03:47:58;;;;;;;37.35;25.80;;;5.90;67.90;;;;;;6246574;23;20012;-88
2022/03/02 03:50:55;;;;;;;39.30;26.55;;;5.90;67.90;;;;;;6233631;23;20024;-88
2022/03/02 03:53:21;;;;;;;39.10;25.40;;;5.90;67.90;;;;;;6186809;23;20029;-87
2022/03/02 03:55:47;;;;;;;36.97;25.38;;;5.90;67.90;;;;;;6188348;23;20021;-89
2022/03/02 03:58:12;;;;;;;40.58;25.95;;;5.90;68.00;;;;;;6188537;23;20017;-89
2022/03/02 04:00:38;;;;;;;38.70;25.70;;;5.80;67.90;;;;;;6186920;23;20021;-89
2022/03/02 04:03:04;;;;;;;38.40;25.80;;;5.80;67.90;;;;;;6188282;23;20009;-89
2022/03/02 04:09:10;;;;;;;41.03;27.83;;;5.80;67.90;;;;;;6188083;23;20020;-88
2022/03/02 04:11:36;;;;;;;45.05;29.90;;;5.80;67.90;;;;;;6188521;23;20013;-88
2022/03/02 04:14:03;;;;;;;41.00;27.13;;;5.80;67.80;;;;;;6186043;23;20021;-88
2022/03/02 04:16:28;;;;;;;42.80;28.00;;;5.70;67.80;;;;;;6188156;23;20103;-88
2022/03/02 04:18:54;;;;;;;37.92;26.67;;;5.70;67.80;;;;;;6186624;23;20016;-88
2022/03/02 04:25:00;;;;;;;38.33;28.00;;;5.70;67.80;;;;;;6187887;23;20336;-89
2022/03/02 04:27:26;;;;;;;40.53;29.23;;;5.70;67.70;;;;;;6188287;23;20044;-88
2022/03/02 04:29:52;;;;;;;39.05;27.40;;;5.70;67.70;;;;;;6188365;23;20057;-89
2022/03/02 04:32:17;;;;;;;42.08;28.63;;;5.70;67.60;;;;;;6187962;23;20096;-88
2022/03/02 04:34:43;;;;;;;44.67;30.85;;;5.70;67.70;;;;;;6188091;23;20021;-88
2022/03/02 04:37:09;;;;;;;45.10;29.40;;;5.60;67.60;;;;;;6186267;23;20054;-89
2022/03/02 04:39:35;;;;;;;41.55;28.92;;;5.60;67.60;;;;;;6186337;23;20096;-88
2022/03/02 04:42:00;;;;;;;45.22;29.92;;;5.60;67.60;;;;;;6185953;23;20021;-88
2022/03/02 04:44:26;;;;;;;43.80;29.77;;;5.60;67.60;;;;;;6186361;23;20016;-89
2022/03/02 04:46:52;;;;;;;42.50;28.70;;;5.50;67.60;;;;;;6189282;23;20025;-89
2022/03/02 04:49:18;;;;;;;44.70;29.40;;;5.60;67.60;;;;;;6189716;23;20104;-88
2022/03/02 04:51:46;;;;;;;45.35;30.95;;;5.50;67.60;;;;;;6216726;23;20007;-83
2022/03/02 04:55:05;;;;;;;44.00;29.50;;;5.50;67.60;;;;;;6275015;22;20043;-84
2022/03/02 04:56:58;;;;;;;43.92;28.63;;;5.50;67.60;;;;;;6274020;23;20034;-83
2022/03/02 04:59:24;;;;;;;44.72;29.75;;;5.50;67.50;;;;;;6253667;23;20016;-89
2022/03/02 05:01:50;;;;;;;43.15;30.40;;;5.40;67.50;;;;;;6248399;22;20337;-89
2022/03/02 05:04:15;;;;;;;44.00;29.58;;;5.40;67.50;;;;;;6221038;23;20422;-88
2022/03/02 05:06:41;;;;;;;45.65;29.15;;;5.30;67.50;;;;;;6247060;23;20486;-88
2022/03/02 05:09:07;;;;;;;45.45;30.23;;;5.30;67.50;;;;;;6258132;22;20055;-88
2022/03/02 05:11:32;;;;;;;40.78;28.83;;;5.30;67.50;;;;;;6240812;23;20022;-88
2022/03/02 05:13:58;;;;;;;44.03;30.42;;;5.30;67.50;;;;;;6248430;23;20039;-89
2022/03/02 05:16:24;;;;;;;48.03;30.77;;;5.20;67.40;;;;;;6246479;23;20024;-89
2022/03/02 05:18:49;;;;;;;40.08;27.40;;;5.20;67.30;;;;;;6247912;23;20340;-88
2022/03/02 05:21:15;;;;;;;41.85;29.85;;;5.10;67.30;;;;;;6246551;23;20020;-89
2022/03/02 05:23:41;;;;;;;43.53;29.38;;;5.10;67.30;;;;;;6248264;22;20019;-89
2022/03/02 05:26:07;;;;;;;39.63;28.35;;;5.10;67.30;;;;;;6246541;23;20012;-89
2022/03/02 05:28:33;;;;;;;41.40;28.17;;;5.00;67.20;;;;;;6247849;22;20020;-89
2022/03/02 05:30:59;;;;;;;39.17;27.10;;;5.00;67.30;;;;;;6248073;23;20070;-88
2022/03/02 05:33:24;;;;;;;42.35;28.23;;;5.00;67.40;;;;;;6221000;23;20095;-89
2022/03/02 05:35:50;;;;;;;41.33;26.70;;;5.00;67.50;;;;;;6247810;23;20058;-88
2022/03/02 05:38:16;;;;;;;38.45;25.77;;;5.00;67.60;;;;;;6248195;23;20012;-89
2022/03/02 05:40:41;;;;;;;39.58;26.85;;;4.90;67.60;;;;;;6246219;23;20024;-89
2022/03/02 05:43:07;;;;;;;39.58;27.77;;;4.90;67.60;;;;;;6246163;23;20058;-89
2022/03/02 05:45:33;;;;;;;43.08;27.73;;;4.90;67.70;;;;;;6247363;23;20055;-89
2022/03/02 05:47:58;;;;;;;41.30;29.15;;;4.90;67.50;;;;;;6248218;23;20016;-90
2022/03/02 05:50:24;;;;;;;41.65;28.00;;;4.90;67.40;;;;;;6247299;23;20020;-86
2022/03/02 05:52:49;;;;;;;38.63;26.77;;;4.90;67.30;;;;;;6247398;23;20022;-89
2022/03/02 05:55:15;;;;;;;43.58;29.92;;;4.90;67.30;;;;;;6247624;23;20019;-88
2022/03/02 05:57:41;;;;;;;38.03;25.85;;;4.90;67.30;;;;;;6247735;23;20440;-88
2022/03/02 06:00:09;;;;;;;43.78;28.92;;;4.90;67.10;;;;;;6247555;23;20031;-88
2022/03/02 06:02:34;;;;;;;42.95;28.83;;;4.80;67.10;;;;;;6247886;22;20034;-89
2022/03/02 06:05:31;;;;;;;43.42;29.70;;;4.80;67.10;;;;;;6245822;23;20040;-89
2022/03/02 06:07:56;;;;;;;40.20;27.92;;;4.80;67.00;;;;;;6246142;23;20367;-89
2022/03/02 06:10:22;;;;;;;40.97;28.48;;;4.80;67.00;;;;;;6247397;23;20012;-88
2022/03/02 06:12:48;;;;;;;40.13;26.73;;;4.70;67.10;;;;;;6247674;22;20063;-89
2022/03/02 06:15:14;;;;;;;39.40;26.42;;;4.70;67.20;;;;;;6247326;23;20009;-89
2022/03/02 06:17:41;;;;;;;41.30;25.70;;;4.70;67.30;;;;;;6248003;23;20432;-88
2022/03/02 06:20:08;;;;;;;39.78;26.13;;;4.70;67.50;;;;;;6247017;23;20008;-89
2022/03/02 06:22:33;;;;;;;37.20;26.60;;;4.70;67.60;;;;;;6246160;23;20313;-89
2022/03/02 06:24:59;;;;;;;38.65;25.73;;;4.70;67.60;;;;;;6247560;22;20050;-89
2022/03/02 06:27:25;;;;;;;40.97;26.90;;;4.70;67.70;;;;;;6246599;23;20047;-89
2022/03/02 06:29:51;;;;;;;38.50;25.00;;;4.70;67.80;;;;;;6247947;23;20039;-89
2022/03/02 06:32:16;;;;;;;40.13;27.58;;;4.70;67.80;;;;;;6246495;23;20016;-89
2022/03/02 06:34:42;;;;;;;39.63;28.40;;;4.70;67.90;;;;;;6246344;23;20340;-89
2022/03/02 06:37:08;;;;;;;41.22;27.13;;;4.70;67.90;;;;;;6245825;23;20309;-89
2022/03/02 06:39:34;;;;;;;39.00;25.88;;;4.70;67.80;;;;;;6246447;23;20024;-90
2022/03/02 06:42:09;;;;;;;40.25;25.90;;;4.70;67.90;;;;;;6247501;23;20021;-89
2022/03/02 06:44:53;;;;;;;40.25;26.38;;;4.70;67.90;;;;;;6247282;22;20020;-89
2022/03/02 06:47:27;;;;;;;38.40;26.50;;;4.70;67.80;;;;;;6247341;22;20016;-89
2022/03/02 06:50:05;;;;;;;39.27;26.67;;;4.70;67.80;;;;;;6247817;22;20024;-89
2022/03/02 06:52:36;;;;;;;33.70;23.17;;;4.70;67.70;;;;;;6246100;23;20062;-88
2022/03/02 06:55:08;;;;;;;41.42;27.15;;;4.70;67.70;;;;;;6247666;22;20333;-88
2022/03/02 06:57:34;;;;;;;40.10;26.58;;;4.70;67.60;;;;;;6245654;23;20027;-88
2022/03/02 07:00:08;;;;;;;37.60;25.38;;;4.70;67.40;;;;;;6247157;23;20027;-87
2022/03/02 07:02:44;;;;;;;36.42;25.30;;;4.70;67.40;;;;;;6247436;22;20059;-87
2022/03/02 07:05:09;;;;;;;41.05;26.63;;;4.70;67.40;;;;;;6245509;23;20026;-88
2022/03/02 07:07:36;;;;;;;38.00;26.02;;;4.70;67.30;;;;;;6246672;22;20040;-85
2022/03/02 07:10:02;;;;;;;43.17;27.52;;;4.60;67.10;;;;;;6247223;22;20057;-88
2022/03/02 07:12:28;;;;;;;40.63;28.42;;;4.60;66.90;;;;;;6247551;22;20061;-88
2022/03/02 07:14:55;;;;;;;44.63;29.40;;;4.60;66.80;;;;;;6245833;23;20464;-88
2022/03/02 07:17:21;;;;;;;38.83;26.75;;;4.60;66.70;;;;;;6247398;22;20020;-88
2022/03/02 07:19:47;;;;;;;45.45;30.33;;;4.50;66.60;;;;;;6247337;22;20051;-88
2022/03/02 07:22:17;;;;;;;43.47;29.63;;;4.50;66.60;;;;;;6220905;23;20023;-89
2022/03/02 07:24:51;;;;;;;42.70;28.42;;;4.40;66.60;;;;;;6247666;22;20055;-89
2022/03/02 07:27:18;;;;;;;40.63;27.60;;;4.40;66.70;;;;;;6249510;23;20020;-89
2022/03/02 07:29:48;;;;;;;44.92;30.23;;;4.30;66.90;;;;;;6247523;23;20012;-89
2022/03/02 07:32:15;;;;;;;45.92;29.17;;;4.30;67.10;;;;;;6248096;23;20016;-90
2022/03/02 07:34:42;;;;;;;44.53;29.67;;;4.40;67.30;;;;;;6273295;22;20016;-89
2022/03/02 07:37:09;;;;;;;40.85;28.52;;;4.20;67.30;;;;;;6247719;23;20026;-89
2022/03/02 07:39:35;;;;;;;47.70;31.15;;;4.20;67.40;;;;;;6247567;23;20016;-89
2022/03/02 07:42:03;;;;;;;45.33;29.45;;;4.20;67.60;;;;;;6249066;23;20016;-89
2022/03/02 07:44:29;;;;;;;43.95;28.48;;;4.20;67.70;;;;;;6247365;23;20019;-89
2022/03/02 07:46:54;;;;;;;47.72;30.13;;;4.10;67.70;;;;;;6247393;23;20012;-89
2022/03/02 07:49:20;;;;;;;46.47;30.15;;;4.10;67.90;;;;;;6247769;23;20023;-90
2022/03/02 07:51:48;;;;;;;50.97;32.00;;;4.10;67.90;;;;;;6247585;23;20012;-89
2022/03/02 07:54:15;;;;;;;50.92;32.88;;;4.10;68.10;;;;;;6247724;23;20061;-89
2022/03/02 07:56:43;;;;;;;46.75;31.70;;;4.10;68.20;;;;;;6247704;23;20023;-90
2022/03/02 07:59:09;;;;;;;48.03;30.38;;;4.20;68.50;;;;;;6249086;22;20023;-89
2022/03/02 08:01:36;;;;;;;47.03;31.17;;;4.10;68.60;;;;;;6247654;23;20020;-89
2022/03/02 08:04:09;;;;;;;45.85;31.08;;;4.10;68.70;;;;;;6247971;23;20043;-88
2022/03/02 08:06:37;;;;;;;50.45;31.73;;;4.10;68.90;;;;;;6222400;23;20016;-90
2022/03/02 08:09:04;;;;;;;47.42;29.88;;;4.10;69.20;;;;;;6249471;22;20012;-88
2022/03/02 08:11:32;;;;;;;48.65;30.70;;;4.10;69.50;;;;;;6247546;23;20027;-88
2022/03/02 08:13:59;;;;;;;46.60;30.13;;;4.20;69.70;;;;;;6221965;23;20032;-88
2022/03/02 08:16:29;;;;;;;51.47;31.90;;;4.20;69.80;;;;;;6247437;23;20024;-88
2022/03/02 08:18:57;;;;;;;46.17;29.20;;;4.30;70.40;;;;;;6247379;23;20012;-88
2022/03/02 08:21:26;;;;;;;44.13;28.63;;;4.30;70.10;;;;;;6246798;23;20020;-89
2022/03/02 08:23:56;;;;;;;42.13;28.95;;;4.40;70.20;;;;;;6249300;22;20012;-89
2022/03/02 08:26:24;;;;;;;43.40;27.95;;;4.50;70.30;;;;;;6221887;23;20016;-89
2022/03/02 08:28:55;;;;;;;41.65;27.50;;;4.90;70.20;;;;;;6248013;23;20134;-89
2022/03/02 08:31:23;;;;;;;41.53;28.40;;;4.80;70.10;;;;;;6256200;22;20016;-89
2022/03/02 08:33:51;;;;;;;43.50;29.35;;;5.00;70.10;;;;;;6265796;23;20020;-88
2022/03/02 08:36:21;;;;;;;42.28;28.90;;;5.10;70.00;;;;;;6257987;22;20027;-90
2022/03/02 08:38:49;;;;;;;39.72;26.63;;;5.20;69.60;;;;;;6247114;23;20012;-87
2022/03/02 08:41:17;;;;;;;37.38;26.73;;;5.40;69.50;;;;;;6247684;23;20021;-90
2022/03/02 08:43:44;;;;;;;38.15;26.65;;;5.60;69.20;;;;;;6222151;22;20026;-90
2022/03/02 08:46:10;;;;;;;41.47;28.38;;;6.10;68.80;;;;;;6249127;22;20074;-89
2022/03/02 08:48:36;;;;;;;35.47;25.73;;;6.00;68.10;;;;;;6247547;23;20012;-90
2022/03/02 08:51:04;;;;;;;39.22;25.20;;;6.30;68.00;;;;;;6249111;23;20043;-90
2022/03/02 08:53:32;;;;;;;36.53;26.63;;;6.40;67.80;;;;;;6247391;23;20012;-89
2022/03/02 08:56:00;;;;;;;38.03;25.63;;;6.50;66.70;;;;;;6247176;23;20095;-90
2022/03/02 08:58:28;;;;;;;37.40;25.02;;;6.70;66.40;;;;;;6247490;23;20063;-90
2022/03/02 09:00:54;;;;;;;37.85;25.67;;;6.80;65.50;;;;;;6247065;23;20016;-90
2022/03/02 09:03:22;;;;;;;35.50;25.17;;;6.90;64.90;;;;;;6247037;23;20008;-92
2022/03/02 09:05:49;;;;;;;34.55;24.45;;;7.10;64.30;;;;;;6247065;23;20065;-90
2022/03/02 09:08:15;;;;;;;33.60;23.55;;;7.20;64.40;;;;;;6246906;23;20046;-89
2022/03/02 09:10:42;;;;;;;34.28;25.42;;;7.30;63.60;;;;;;6247113;23;20047;-89
2022/03/02 09:13:10;;;;;;;34.28;24.67;;;7.30;63.10;;;;;;6247426;23;20333;-88
2022/03/02 09:15:37;;;;;;;37.13;25.80;;;7.70;63.20;;;;;;6250092;22;20027;-91
2022/03/02 09:18:04;;;;;;;32.08;23.92;;;7.50;62.90;;;;;;6252764;23;20012;-92
2022/03/02 09:20:33;;;;;;;31.00;22.90;;;7.60;62.40;;;;;;6268198;22;20015;-92
2022/03/02 09:23:06;;;;;;;32.20;23.20;;;7.70;61.40;;;;;;6273885;23;20072;-91
2022/03/02 09:25:38;;;;;;;33.97;23.70;;;8.10;62.00;;;;;;6269811;22;20050;-96
2022/03/02 09:28:08;;;;;;;30.98;23.35;;;7.90;61.60;;;;;;6269491;22;20023;-96
2022/03/02 09:33:14;;;;;;;30.13;22.67;;;8.10;61.10;;;;;;6235144;22;20242;-92
2022/03/02 09:36:19;;;;;;;31.40;23.10;;;8.50;60.80;;;;;;6216659;23;20026;-96
2022/03/02 09:41:35;;;;;;;34.92;23.55;;;8.40;60.00;;;;;;6210925;22;20039;-95
2022/03/02 09:44:05;;;;;;;31.15;22.45;;;8.60;59.60;;;;;;6236792;22;20023;-96
2022/03/02 09:57:07;;;;;;;29.00;21.15;;;8.80;58.00;;;;;;6294801;22;20023;-96
2022/03/02 09:59:39;;;;;;;28.88;20.70;;;8.90;58.00;;;;;;6362618;22;20402;-89
2022/03/02 10:02:07;;;;;;;28.15;21.48;;;9.40;58.20;;;;;;6316154;22;20023;-96
2022/03/02 10:04:37;;;;;;;30.92;21.25;;;9.10;57.70;;;;;;6319765;22;20026;-96
2022/03/02 10:07:26;;;;;;;31.60;22.95;;;9.20;57.20;;;;;;6319836;22;20017;-95
2022/03/02 10:10:04;;;;;;;28.17;20.75;;;9.60;57.30;;;;;;6347982;22;20064;-96
2022/03/02 10:12:32;;;;;;;27.77;19.65;;;9.30;56.80;;;;;;6353194;22;20014;-96
2022/03/02 10:14:58;;;;;;;29.90;20.00;;;9.80;56.90;;;;;;6321252;22;20023;-96
2022/03/02 10:17:35;;;;;;;24.17;19.10;;;9.40;56.90;;;;;;6328875;22;20025;-96
2022/03/02 10:20:16;;;;;;;29.40;20.67;;;9.30;55.60;;;;;;6332409;22;20002;-96
2022/03/02 10:28:04;;;;;;;28.95;19.80;;;9.70;54.20;;;;;;6300240;22;20018;-94
2022/03/02 10:30:33;;;;;;;28.58;20.75;;;9.70;54.00;;;;;;6313160;22;20019;-91
2022/03/02 10:33:25;;;;;;;28.13;19.25;;;9.80;54.40;;;;;;6277622;22;20019;-96
2022/03/02 10:39:49;;;;;;;26.50;18.63;;;9.80;53.70;;;;;;6312900;22;20033;-94
2022/03/02 10:42:30;;;;;;;27.80;19.40;;;9.90;53.80;;;;;;6313085;22;20015;-95
2022/03/02 10:45:16;;;;;;;24.63;18.42;;;10.00;53.90;;;;;;6283905;22;20084;-96
2022/03/02 10:47:59;;;;;;;27.55;19.88;;;10.00;53.50;;;;;;6286257;22;20019;-94
2022/03/02 10:50:34;;;;;;;26.08;18.13;;;10.00;53.10;;;;;;6307263;22;20026;-95
2022/03/02 10:53:04;;;;;;;25.52;17.85;;;10.10;53.20;;;;;;6303289;22;20011;-96
2022/03/02 10:55:32;;;;;;;23.98;18.25;;;10.10;53.10;;;;;;6325543;22;20016;-96
2022/03/02 10:58:04;;;;;;;26.15;17.98;;;10.10;52.40;;;;;;6299439;22;20015;-95
2022/03/02 11:00:30;;;;;;;27.30;17.90;;;10.10;51.80;;;;;;6293017;22;20011;-96
2022/03/02 11:02:59;;;;;;;25.13;17.52;;;10.20;51.50;;;;;;6292957;22;20054;-95
2022/03/02 11:05:29;;;;;;;23.20;17.73;;;10.20;52.00;;;;;;6293333;22;20038;-96
2022/03/02 11:08:10;;;;;;;26.08;17.85;;;10.20;52.20;;;;;;6272490;22;20022;-95
2022/03/02 11:10:37;;;;;;;23.10;17.10;;;10.30;52.00;;;;;;6322759;22;20019;-96
2022/03/02 11:13:13;;;;;;;23.25;16.90;;;10.30;52.00;;;;;;6293944;22;20086;-96
2022/03/02 11:15:48;;;;;;;24.17;17.20;;;10.40;50.90;;;;;;6330212;22;20023;-96
2022/03/02 11:18:16;;;;;;;23.23;17.40;;;10.50;51.40;;;;;;6323249;22;20019;-96
2022/03/02 11:20:53;;;;;;;24.60;16.35;;;10.50;50.00;;;;;;6290848;22;20054;-96
2022/03/02 11:23:47;;;;;;;22.23;16.45;;;10.50;49.50;;;;;;6279526;22;20051;-96
2022/03/02 11:26:28;;;;;;;22.73;15.70;;;10.50;48.90;;;;;;6262102;22;20015;-96
2022/03/02 11:29:01;;;;;;;23.33;16.58;;;10.50;49.10;;;;;;6293270;22;20049;-96
2022/03/02 11:31:58;;;;;;;24.02;17.67;;;10.60;48.90;;;;;;6321936;22;20010;-96
2022/03/02 11:34:44;;;;;;;24.55;16.33;;;10.60;48.60;;;;;;6301547;22;20017;-96
2022/03/02 11:37:50;;;;;;;21.65;15.80;;;10.60;48.50;;;;;;6295618;22;20061;-96
2022/03/02 11:40:16;;;;;;;23.27;16.88;;;10.70;48.20;;;;;;6294334;22;20026;-95
2022/03/02 11:42:43;;;;;;;24.42;15.88;;;10.70;48.50;;;;;;6318532;22;20019;-96
2022/03/02 11:45:11;;;;;;;22.80;17.08;;;10.70;47.20;;;;;;6321135;22;20012;-96
2022/03/02 11:47:42;;;;;;;22.05;15.88;;;10.70;47.40;;;;;;6306355;22;20023;-96
2022/03/02 11:50:11;;;;;;;21.92;15.93;;;10.70;47.30;;;;;;6311193;22;20014;-94
2022/03/02 11:52:45;;;;;;;20.85;15.70;;;10.70;47.00;;;;;;6338065;22;20003;-87
2022/03/02 11:55:17;;;;;;;23.13;16.23;;;10.70;45.50;;;;;;6310922;22;19996;-95
2022/03/02 11:57:42;;;;;;;24.65;16.58;;;10.80;46.00;;;;;;6310713;22;20022;-93
2022/03/02 12:00:19;;;;;;;23.13;16.45;;;10.80;46.00;;;;;;6336579;22;20326;-96
2022/03/02 12:02:52;;;;;;;24.70;16.50;;;10.70;46.70;;;;;;6308705;22;20015;-96
2022/03/02 12:05:22;;;;;;;22.77;15.55;;;10.80;46.50;;;;;;6337367;22;20015;-89
2022/03/02 12:07:50;;;;;;;22.08;15.68;;;10.90;45.70;;;;;;6310646;22;20008;-82
2022/03/02 12:10:18;;;;;;;24.45;16.23;;;10.80;45.20;;;;;;6344362;22;20014;-83
2022/03/02 12:12:44;;;;;;;20.08;14.88;;;11.20;46.60;;;;;;6342562;22;20014;-84
2022/03/02 12:15:11;;;;;;;22.50;15.70;;;11.20;46.70;;;;;;6341745;22;20072;-96
2022/03/02 12:17:36;;;;;;;22.30;15.75;;;11.10;47.20;;;;;;6341335;22;19998;-96
2022/03/02 12:20:08;;;;;;;22.35;15.50;;;11.10;46.60;;;;;;6368008;22;20026;-94
2022/03/02 12:22:35;;;;;;;21.05;15.43;;;10.70;46.30;;;;;;6341152;22;19994;-96
2022/03/02 12:25:03;;;;;;;22.40;15.75;;;10.80;46.20;;;;;;6324025;22;20022;-96
2022/03/02 12:27:29;;;;;;;21.30;14.50;;;10.80;46.20;;;;;;6311428;22;20023;-88
2022/03/02 12:30:03;;;;;;;20.50;15.27;;;10.70;45.50;;;;;;6311255;22;20007;-93
2022/03/02 12:32:30;;;;;;;21.85;14.77;;;10.70;45.40;;;;;;6328608;22;20003;-91
2022/03/02 12:34:58;;;;;;;19.48;14.27;;;11.20;45.90;;;;;;6368828;22;20058;-85
2022/03/02 12:37:26;;;;;;;21.60;15.13;;;11.20;45.90;;;;;;6368650;22;20025;-84
2022/03/02 12:39:52;;;;;;;22.27;15.55;;;11.10;45.90;;;;;;6342266;22;20006;-92
2022/03/02 12:42:19;;;;;;;19.15;14.43;;;11.20;46.40;;;;;;6369108;22;20026;-91
2022/03/02 12:44:50;;;;;;;21.52;15.27;;;11.20;46.00;;;;;;6342358;22;20007;-82
2022/03/02 12:47:19;;;;;;;21.38;15.95;;;10.80;46.10;;;;;;6342459;22;20003;-79
2022/03/02 12:49:47;;;;;;;22.17;16.65;;;10.80;46.60;;;;;;6366777;22;20002;-89
2022/03/02 12:52:13;;;;;;;21.50;15.48;;;11.10;47.60;;;;;;6366861;22;20039;-96
2022/03/02 12:54:41;;;;;;;23.75;15.82;;;11.10;47.90;;;;;;6365763;22;19995;-96
2022/03/02 12:57:12;;;;;;;21.98;15.95;;;11.20;48.00;;;;;;6315393;22;20002;-79
2022/03/02 12:59:43;;;;;;;22.38;16.90;;;10.80;48.10;;;;;;6312484;22;19995;-96
2022/03/02 13:02:17;;;;;;;22.10;17.08;;;10.70;48.30;;;;;;6336476;22;20002;-96
2022/03/02 13:04:52;;;;;;;22.95;16.38;;;10.70;48.00;;;;;;6335288;22;20473;-94
2022/03/02 13:08:06;;;;;;;22.70;16.90;;;10.70;48.70;;;;;;6333764;22;20026;-94
2022/03/02 13:10:32;;;;;;;21.98;17.02;;;10.70;48.70;;;;;;6358282;22;20022;-95
2022/03/02 13:13:00;;;;;;;24.88;17.35;;;10.70;48.10;;;;;;6315443;22;20067;-95
2022/03/02 13:15:31;;;;;;;21.77;16.30;;;10.70;47.90;;;;;;6342375;22;20037;-96
2022/03/02 13:18:12;;;;;;;25.75;17.90;;;10.70;48.40;;;;;;6345195;22;20030;-96
2022/03/02 13:20:37;;;;;;;21.48;16.38;;;10.60;49.20;;;;;;6314886;22;20011;-94
2022/03/02 13:23:24;;;;;;;22.77;17.25;;;10.60;49.40;;;;;;6342690;22;20522;-95
2022/03/02 13:25:59;;;;;;;22.92;17.35;;;10.70;49.40;;;;;;6310747;22;20362;-94